Time;durP1;ratioP1;P1;durP2;ratioP2;P2;SDS_P1;SDS_P2;PMS_P1;PMS_P2;Temp;Humidity;BMP_temperature;BMP_pressure;BME280_temperature;BME280_humidity;BME280_pressure;Samples;Min_cycle;Max_cycle;Signal;HPM_P1;HPM_P2
2022/03/24 00:01:46;;;;;;;;;;;11.70;67.70;;;;;;4993844;28;20312;-67
2022/03/24 00:04:12;;;;;;;;;;;11.80;67.70;;;;;;4994109;28;20048;-66
2022/03/24 00:06:37;;;;;;;;;;;11.80;67.80;;;;;;5009833;28;20322;-67
2022/03/24 00:09:03;;;;;;;;;;;11.80;67.60;;;;;;4994624;28;19921;-70
2022/03/24 00:11:30;;;;;;;;;;;11.70;67.90;;;;;;4994707;28;19910;-66
2022/03/24 00:13:56;;;;;;;;;;;11.80;67.50;;;;;;5009867;28;19997;-66
2022/03/24 00:16:21;;;;;;;;;;;11.80;67.40;;;;;;5009008;28;19948;-71
2022/03/24 00:18:47;;;;;;;;;;;11.80;67.40;;;;;;5009783;28;19960;-67
2022/03/24 00:21:14;;;;;;;;;;;11.80;67.10;;;;;;4993945;28;19917;-66
2022/03/24 00:23:40;;;;;;;;;;;11.80;67.00;;;;;;4994866;28;19926;-66
2022/03/24 00:26:05;;;;;;;;;;;11.70;66.70;;;;;;5009027;28;19924;-69
2022/03/24 00:28:31;;;;;;;;;;;11.60;67.10;;;;;;4995722;28;19910;-66
2022/03/24 00:30:57;;;;;;;;;;;11.50;67.50;;;;;;4995562;28;19992;-67
2022/03/24 00:33:23;;;;;;;;;;;11.20;68.20;;;;;;4995791;28;20008;-66
2022/03/24 00:35:49;;;;;;;;;;;11.10;68.80;;;;;;5010993;28;19925;-70
2022/03/24 00:38:16;;;;;;;;;;;11.10;68.90;;;;;;4996552;28;19913;-68
2022/03/24 00:40:41;;;;;;;;;;;11.10;69.00;;;;;;5011867;28;19916;-70
2022/03/24 00:43:08;;;;;;;;;;;11.10;68.80;;;;;;4995776;28;20282;-66
2022/03/24 00:45:33;;;;;;;;;;;11.20;68.70;;;;;;5010746;28;19921;-67
2022/03/24 00:47:59;;;;;;;;;;;11.10;67.90;;;;;;5010881;28;19910;-64
2022/03/24 00:50:24;;;;;;;;;;;11.10;67.80;;;;;;4993782;28;19914;-66
2022/03/24 00:52:50;;;;;;;;;;;10.80;67.80;;;;;;4995261;28;20038;-69
2022/03/24 00:55:18;;;;;;;;;;;10.90;67.70;;;;;;4994999;28;19928;-67
2022/03/24 00:57:45;;;;;;;;;;;10.90;67.80;;;;;;4995472;28;19916;-68
2022/03/24 01:00:15;;;;;;;;;;;10.90;67.40;;;;;;5009914;28;19917;-67
2022/03/24 01:02:41;;;;;;;;;;;10.80;67.50;;;;;;5010298;28;19910;-67
2022/03/24 01:05:07;;;;;;;;;;;10.80;68.20;;;;;;4993523;28;19972;-66
2022/03/24 01:07:36;;;;;;;;;;;10.70;68.10;;;;;;4993617;28;19910;-68
2022/03/24 01:10:02;;;;;;;;;;;10.80;68.40;;;;;;4994871;28;20363;-68
2022/03/24 01:12:28;;;;;;;;;;;10.70;68.40;;;;;;5009552;28;20245;-66
2022/03/24 01:14:55;;;;;;;;;;;10.80;68.00;;;;;;4995134;28;20362;-66
2022/03/24 01:17:23;;;;;;;;;;;10.70;68.10;;;;;;5010967;28;19947;-68
2022/03/24 01:19:49;;;;;;;;;;;10.60;68.30;;;;;;4997079;28;19910;-67
2022/03/24 01:22:14;;;;;;;;;;;10.60;68.80;;;;;;5010279;28;19929;-69
2022/03/24 01:24:40;;;;;;;;;;;10.60;68.80;;;;;;4993967;28;19914;-66
2022/03/24 01:27:06;;;;;;;;;;;10.60;68.80;;;;;;4994769;28;19925;-66
2022/03/24 01:29:32;;;;;;;;;;;10.50;69.30;;;;;;4995075;28;19960;-66
2022/03/24 01:31:59;;;;;;;;;;;10.30;69.40;;;;;;5009197;28;21800;-68
2022/03/24 01:34:25;;;;;;;;;;;10.20;70.10;;;;;;4994304;28;19968;-66
2022/03/24 01:36:51;;;;;;;;;;;10.30;70.00;;;;;;5010237;28;19910;-73
2022/03/24 01:39:16;;;;;;;;;;;10.30;70.30;;;;;;4994564;28;20266;-68
2022/03/24 01:42:02;;;;;;;;;;;10.20;70.30;;;;;;4994672;28;19916;-75
2022/03/24 01:44:28;;;;;;;;;;;10.20;70.40;;;;;;4991073;28;19910;-68
2022/03/24 01:46:56;;;;;;;;;;;10.20;70.30;;;;;;4994474;28;20283;-68
2022/03/24 01:49:22;;;;;;;;;;;10.20;70.20;;;;;;5008815;28;19914;-67
2022/03/24 01:51:47;;;;;;;;;;;10.20;70.10;;;;;;4994334;28;19937;-68
2022/03/24 01:54:13;;;;;;;;;;;10.20;70.00;;;;;;4992745;28;20371;-68
2022/03/24 01:56:40;;;;;;;;;;;10.20;70.40;;;;;;4994146;28;19917;-69
2022/03/24 01:59:07;;;;;;;;;;;10.20;70.00;;;;;;4994769;28;19914;-66
2022/03/24 02:01:37;;;;;;;;;;;10.30;69.90;;;;;;4993725;28;19961;-66
2022/03/24 02:04:06;;;;;;;;;;;10.20;70.30;;;;;;4994233;28;19909;-67
2022/03/24 02:06:32;;;;;;;;;;;10.10;70.50;;;;;;4993598;28;19918;-66
2022/03/24 02:08:58;;;;;;;;;;;9.90;70.70;;;;;;5009145;28;19921;-66
2022/03/24 02:11:24;;;;;;;;;;;9.80;71.30;;;;;;4993375;28;19909;-68
2022/03/24 02:13:49;;;;;;;;;;;9.90;71.20;;;;;;4994194;28;20290;-63
2022/03/24 02:16:15;;;;;;;;;;;9.70;71.60;;;;;;4992528;28;20392;-67
2022/03/24 02:18:41;;;;;;;;;;;9.70;71.60;;;;;;4994676;28;19910;-69
2022/03/24 02:21:06;;;;;;;;;;;9.40;72.20;;;;;;5009317;28;19961;-67
2022/03/24 02:23:32;;;;;;;;;;;9.50;72.30;;;;;;5008730;28;20138;-64
2022/03/24 02:25:57;;;;;;;;;;;9.60;72.00;;;;;;4993978;28;20429;-67
2022/03/24 02:28:23;;;;;;;;;;;9.50;72.20;;;;;;5008099;28;19917;-66
2022/03/24 02:30:50;;;;;;;;;;;9.40;72.70;;;;;;4993662;28;19910;-67
2022/03/24 02:33:20;;;;;;;;;;;9.30;73.30;;;;;;5008168;28;19960;-66
2022/03/24 02:35:46;;;;;;;;;;;8.90;74.30;;;;;;4993754;28;19945;-67
2022/03/24 02:38:11;;;;;;;;;;;8.80;75.20;;;;;;4992708;28;20318;-66
2022/03/24 02:40:37;;;;;;;;;;;8.80;75.10;;;;;;4992976;28;19910;-66
2022/03/24 02:43:02;;;;;;;;;;;9.00;75.00;;;;;;5008850;28;20004;-67
2022/03/24 02:45:28;;;;;;;;;;;9.10;75.10;;;;;;4993159;28;19972;-70
2022/03/24 02:47:54;;;;;;;;;;;9.30;75.00;;;;;;4992475;28;19914;-67
2022/03/24 02:50:23;;;;;;;;;;;9.30;74.30;;;;;;4992954;28;20004;-69
2022/03/24 02:52:48;;;;;;;;;;;9.20;74.80;;;;;;4992012;28;19918;-68
2022/03/24 02:55:14;;;;;;;;;;;9.30;75.10;;;;;;4993374;28;19926;-69
2022/03/24 02:57:39;;;;;;;;;;;9.20;74.60;;;;;;4993215;28;19957;-67
2022/03/24 03:00:06;;;;;;;;;;;9.20;74.70;;;;;;5012317;28;20359;-68
2022/03/24 03:02:32;;;;;;;;;;;9.20;74.80;;;;;;4996783;28;20363;-67
2022/03/24 03:04:57;;;;;;;;;;;9.30;74.60;;;;;;5012617;28;19910;-71
2022/03/24 03:07:23;;;;;;;;;;;9.20;74.90;;;;;;4996725;28;20368;-66
2022/03/24 03:09:49;;;;;;;;;;;9.20;74.70;;;;;;5012262;28;19910;-67
2022/03/24 03:12:16;;;;;;;;;;;9.20;74.60;;;;;;5012645;28;19917;-66
2022/03/24 03:14:41;;;;;;;;;;;9.20;75.00;;;;;;4997297;28;19909;-66
2022/03/24 03:17:08;;;;;;;;;;;9.20;74.90;;;;;;4997093;28;20332;-67
2022/03/24 03:19:34;;;;;;;;;;;9.10;75.10;;;;;;4996957;28;20310;-66
2022/03/24 03:22:00;;;;;;;;;;;9.00;75.30;;;;;;4995533;28;19922;-67
2022/03/24 03:24:26;;;;;;;;;;;9.10;75.80;;;;;;4996431;28;19964;-65
2022/03/24 03:26:52;;;;;;;;;;;9.10;75.40;;;;;;4996746;28;19921;-66
2022/03/24 03:29:18;;;;;;;;;;;9.00;75.20;;;;;;4996532;28;20383;-67
2022/03/24 03:31:44;;;;;;;;;;;9.10;75.40;;;;;;4995853;28;19910;-65
2022/03/24 03:34:10;;;;;;;;;;;9.10;75.60;;;;;;4996993;28;20419;-66
2022/03/24 03:36:37;;;;;;;;;;;9.10;75.40;;;;;;4996449;28;20275;-63
2022/03/24 03:39:03;;;;;;;;;;;9.10;75.50;;;;;;4996798;28;19917;-66
2022/03/24 03:41:29;;;;;;;;;;;9.10;75.40;;;;;;4996235;28;19913;-66
2022/03/24 03:43:55;;;;;;;;;;;9.00;75.50;;;;;;4996896;28;19937;-70
2022/03/24 03:46:22;;;;;;;;;;;9.00;76.00;;;;;;4996173;28;19914;-66
2022/03/24 03:48:47;;;;;;;;;;;9.10;76.00;;;;;;5011710;28;19914;-67
2022/03/24 03:51:13;;;;;;;;;;;9.00;76.20;;;;;;4996885;28;19916;-65
2022/03/24 03:53:38;;;;;;;;;;;8.70;77.00;;;;;;4996137;28;19914;-67
2022/03/24 03:56:05;;;;;;;;;;;8.80;77.30;;;;;;4996316;28;19936;-66
2022/03/24 03:58:31;;;;;;;;;;;8.80;77.60;;;;;;4996093;28;19988;-66
2022/03/24 04:00:57;;;;;;;;;;;8.80;77.50;;;;;;5011515;28;19910;-66
2022/03/24 04:03:26;;;;;;;;;;;8.70;77.90;;;;;;5011053;28;20279;-66
2022/03/24 04:05:59;;;;;;;;;;;8.50;78.90;;;;;;5011505;28;19914;-62
2022/03/24 04:08:26;;;;;;;;;;;8.40;79.40;;;;;;5011027;28;19921;-66
2022/03/24 04:10:52;;;;;;;;;;;8.40;79.50;;;;;;4994030;28;19917;-67
2022/03/24 04:13:19;;;;;;;;;;;8.30;79.90;;;;;;5011939;28;19910;-68
2022/03/24 04:15:45;;;;;;;;;;;8.30;80.40;;;;;;4996672;28;19910;-68
2022/03/24 04:18:11;;;;;;;;;;;8.30;80.30;;;;;;5012490;28;19964;-65
2022/03/24 04:20:38;;;;;;;;;;;8.40;80.90;;;;;;5011943;28;19910;-67
2022/03/24 04:23:05;;;;;;;;;;;8.40;80.50;;;;;;4996155;28;19929;-67
2022/03/24 04:25:32;;;;;;;;;;;8.40;80.80;;;;;;4995479;28;19946;-66
2022/03/24 04:27:58;;;;;;;;;;;8.30;81.30;;;;;;4994853;28;20001;-67
2022/03/24 04:30:25;;;;;;;;;;;8.40;81.30;;;;;;4995506;28;20348;-66
2022/03/24 04:32:50;;;;;;;;;;;8.30;81.70;;;;;;4996356;28;19909;-66
2022/03/24 04:35:16;;;;;;;;;;;8.40;81.60;;;;;;5011125;28;20008;-66
2022/03/24 04:37:42;;;;;;;;;;;8.40;81.30;;;;;;4992153;28;20012;-68
2022/03/24 04:40:10;;;;;;;;;;;8.40;81.40;;;;;;4978677;28;20381;-67
2022/03/24 04:42:36;;;;;;;;;;;8.40;81.50;;;;;;4975257;28;20005;-68
2022/03/24 04:45:02;;;;;;;;;;;8.40;81.60;;;;;;4975299;28;19969;-67
2022/03/24 04:47:28;;;;;;;;;;;8.40;81.40;;;;;;4975436;28;20009;-66
2022/03/24 04:49:53;;;;;;;;;;;8.40;81.60;;;;;;4976616;28;19993;-66
2022/03/24 04:52:19;;;;;;;;;;;8.40;81.70;;;;;;4974883;28;19918;-67
2022/03/24 04:54:45;;;;;;;;;;;8.40;82.00;;;;;;4974571;28;20042;-69
2022/03/24 04:57:11;;;;;;;;;;;8.40;82.00;;;;;;4975074;28;20360;-65
2022/03/24 04:59:37;;;;;;;;;;;8.40;82.60;;;;;;4975489;28;20253;-66
2022/03/24 05:02:03;;;;;;;;;;;;;;;;;;4976194;28;20050;-66
2022/03/24 05:04:29;;;;;;;;;;;;;;;;;;4990585;28;19981;-66
2022/03/24 05:06:54;;;;;;;;;;;8.40;82.50;;;;;;4977486;28;20012;-71
2022/03/24 05:09:22;;;;;;;;;;;8.20;82.70;;;;;;4979098;28;19914;-67
2022/03/24 05:11:48;;;;;;;;;;;8.10;83.40;;;;;;4977653;28;19961;-66
2022/03/24 05:14:13;;;;;;;;;;;8.20;84.00;;;;;;4978045;28;19914;-71
2022/03/24 05:16:39;;;;;;;;;;;8.20;83.20;;;;;;4977470;28;20304;-67
2022/03/24 05:19:04;;;;;;;;;;;8.20;83.30;;;;;;4977011;28;19932;-66
2022/03/24 05:21:31;;;;;;;;;;;8.30;83.40;;;;;;4974480;28;20378;-68
2022/03/24 05:23:57;;;;;;;;;;;8.20;83.70;;;;;;4975928;28;19921;-69
2022/03/24 05:26:26;;;;;;;;;;;8.20;83.90;;;;;;4976103;28;19914;-66
2022/03/24 05:28:51;;;;;;;;;;;8.20;84.60;;;;;;4977386;28;19914;-67
2022/03/24 05:31:17;;;;;;;;;;;8.20;84.20;;;;;;4978014;28;19961;-65
2022/03/24 05:33:43;;;;;;;;;;;8.20;83.70;;;;;;4975564;28;19910;-64
2022/03/24 05:36:09;;;;;;;;;;;8.10;83.80;;;;;;4979255;28;20643;-66
2022/03/24 05:38:35;;;;;;;;;;;8.10;84.00;;;;;;4993082;28;20282;-69
2022/03/24 05:41:01;;;;;;;;;;;8.10;84.40;;;;;;5006094;28;19918;-67
2022/03/24 05:43:27;;;;;;;;;;;8.00;84.50;;;;;;4994411;28;19909;-67
2022/03/24 05:45:52;;;;;;;;;;;8.00;84.50;;;;;;4993445;28;19913;-67
2022/03/24 05:48:18;;;;;;;;;;;8.10;84.10;;;;;;4993844;28;19961;-67
2022/03/24 05:50:44;;;;;;;;;;;7.90;84.60;;;;;;4992751;28;20290;-67
2022/03/24 05:53:09;;;;;;;;;;;7.90;84.40;;;;;;4994247;28;19969;-69
2022/03/24 05:55:36;;;;;;;;;;;8.00;84.00;;;;;;4992911;28;19918;-66
2022/03/24 05:58:02;;;;;;;;;;;8.10;83.10;;;;;;4993200;28;19917;-68
2022/03/24 06:00:27;;;;;;;;;;;8.20;82.70;;;;;;4994267;28;20012;-68
2022/03/24 06:02:54;;;;;;;;;;;8.10;82.70;;;;;;4994214;28;19910;-67
2022/03/24 06:05:20;;;;;;;;;;;8.10;83.50;;;;;;4994030;28;20344;-66
2022/03/24 06:07:46;;;;;;;;;;;8.10;82.70;;;;;;4995839;28;20577;-68
2022/03/24 06:10:12;;;;;;;;;;;8.10;82.70;;;;;;4995520;28;19956;-70
2022/03/24 06:12:38;;;;;;;;;;;8.20;82.90;;;;;;4996454;28;19909;-69
2022/03/24 06:15:04;;;;;;;;;;;8.20;83.00;;;;;;4985161;28;19954;-71
2022/03/24 06:17:30;;;;;;;;;;;8.20;83.10;;;;;;4973729;28;20364;-69
2022/03/24 06:19:55;;;;;;;;;;;8.30;83.00;;;;;;4974649;28;19914;-68
2022/03/24 06:22:21;;;;;;;;;;;8.40;82.20;;;;;;4973760;28;20005;-69
2022/03/24 06:24:47;;;;;;;;;;;8.40;81.70;;;;;;4978990;28;20235;-71
2022/03/24 06:27:12;;;;;;;;;;;8.50;80.90;;;;;;4973836;28;19914;-64
2022/03/24 06:29:38;;;;;;;;;;;8.60;80.60;;;;;;4973265;28;20368;-62
2022/03/24 06:32:05;;;;;;;;;;;8.60;79.70;;;;;;4979771;28;20005;-66
2022/03/24 06:34:31;;;;;;;;;;;8.30;79.70;;;;;;4973752;28;19910;-68
2022/03/24 06:36:57;;;;;;;;;;;8.40;80.50;;;;;;4973615;28;19933;-68
2022/03/24 06:39:22;;;;;;;;;;;8.50;79.60;;;;;;4974829;28;19910;-68
2022/03/24 06:41:48;;;;;;;;;;;8.80;79.50;;;;;;4984223;28;20213;-68
2022/03/24 06:44:14;;;;;;;;;;;8.90;78.40;;;;;;5008794;28;19917;-66
2022/03/24 06:46:40;;;;;;;;;;;9.10;78.10;;;;;;5008157;28;20454;-69
2022/03/24 06:49:06;;;;;;;;;;;9.30;77.20;;;;;;5010763;28;19973;-67
2022/03/24 06:51:32;;;;;;;;;;;9.60;76.10;;;;;;4991664;28;20275;-68
2022/03/24 06:53:58;;;;;;;;;;;9.90;74.70;;;;;;4991410;28;19918;-67
2022/03/24 06:56:24;;;;;;;;;;;10.10;73.80;;;;;;4993832;28;20352;-68
2022/03/24 06:58:49;;;;;;;;;;;10.30;73.10;;;;;;4993811;28;20154;-70
2022/03/24 07:01:18;;;;;;;;;;;10.50;71.90;;;;;;4995406;28;19910;-68
2022/03/24 07:03:44;;;;;;;;;;;10.60;72.30;;;;;;4992256;28;19910;-67
2022/03/24 07:06:09;;;;;;;;;;;10.80;71.50;;;;;;4993348;28;20000;-65
2022/03/24 07:08:35;;;;;;;;;;;11.00;70.90;;;;;;4992944;28;20386;-64
2022/03/24 07:11:02;;;;;;;;;;;11.00;70.00;;;;;;4992956;28;19910;-64
2022/03/24 07:13:28;;;;;;;;;;;11.20;70.30;;;;;;4994577;28;19997;-67
2022/03/24 07:15:53;;;;;;;;;;;11.20;84.00;;;;;;4991953;28;20319;-66
2022/03/24 07:18:19;;;;;;;;;;;12.00;75.50;;;;;;4990592;28;19910;-71
2022/03/24 07:20:44;;;;;;;;;;;12.20;70.40;;;;;;4991161;28;19964;-70
2022/03/24 07:23:10;;;;;;;;;;;12.50;69.70;;;;;;4991563;28;19975;-68
2022/03/24 07:25:40;;;;;;;;;;;12.20;66.80;;;;;;4990620;28;19922;-69
2022/03/24 07:28:07;;;;;;;;;;;12.40;66.60;;;;;;4990288;28;19917;-68
2022/03/24 07:30:33;;;;;;;;;;;12.40;65.20;;;;;;4989568;28;20255;-68
2022/03/24 07:32:59;;;;;;;;;;;12.30;65.80;;;;;;4986257;28;19914;-65
2022/03/24 07:35:25;;;;;;;;;;;12.50;65.60;;;;;;4989694;28;19910;-67
2022/03/24 07:37:51;;;;;;;;;;;12.70;65.10;;;;;;4990607;28;20263;-64
2022/03/24 07:40:18;;;;;;;;;;;12.80;65.20;;;;;;4978198;28;19917;-69
2022/03/24 07:42:52;;;;;;;;;;;12.90;64.50;;;;;;4978179;28;19910;-70
2022/03/24 07:45:22;;;;;;;;;;;12.80;64.10;;;;;;4978588;28;19910;-66
2022/03/24 07:48:14;;;;;;;;;;;12.80;65.40;;;;;;4974908;28;19921;-63
2022/03/24 07:50:42;;;;;;;;;;;12.90;66.50;;;;;;4980702;28;20012;-69
2022/03/24 07:53:13;;;;;;;;;;;13.00;65.50;;;;;;4992654;28;19921;-68
2022/03/24 07:55:44;;;;;;;;;;;13.00;64.50;;;;;;4992922;28;19934;-65
2022/03/24 07:58:10;;;;;;;;;;;12.60;65.00;;;;;;4989323;28;19996;-69
2022/03/24 08:00:35;;;;;;;;;;;12.50;65.50;;;;;;4976220;28;19914;-65
2022/03/24 08:03:01;;;;;;;;;;;12.90;65.10;;;;;;4974673;28;19976;-64
2022/03/24 08:05:26;;;;;;;;;;;13.30;65.00;;;;;;4975568;28;20272;-65
2022/03/24 08:07:56;;;;;;;;;;;12.80;64.80;;;;;;4973214;28;19914;-71
2022/03/24 08:10:42;;;;;;;;;;;13.10;65.30;;;;;;4984595;28;19913;-68
2022/03/24 08:13:08;;;;;;;;;;;13.70;65.10;;;;;;4990339;28;19910;-64
2022/03/24 08:15:37;;;;;;;;;;;14.40;63.60;;;;;;4989710;28;19916;-69
2022/03/24 08:18:07;;;;;;;;;;;14.20;64.30;;;;;;4979654;28;19913;-66
2022/03/24 08:20:32;;;;;;;;;;;14.70;63.30;;;;;;4992672;28;19913;-64
2022/03/24 08:22:58;;;;;;;;;;;14.80;62.10;;;;;;4996241;28;19933;-63
2022/03/24 08:25:24;;;;;;;;;;;14.70;62.60;;;;;;4994073;28;19925;-65
2022/03/24 08:27:50;;;;;;;;;;;15.30;62.00;;;;;;4993455;28;20088;-65
2022/03/24 08:30:15;;;;;;;;;;;15.80;61.90;;;;;;4992704;28;20272;-68
2022/03/24 08:32:41;;;;;;;;;;;15.50;61.50;;;;;;4982208;28;19949;-68
2022/03/24 08:35:07;;;;;;;;;;;16.10;60.70;;;;;;4976734;28;19957;-67
2022/03/24 08:37:33;;;;;;;;;;;16.50;59.20;;;;;;4993511;28;19914;-67
2022/03/24 08:39:58;;;;;;;;;;;15.90;69.80;;;;;;4991930;28;19984;-72
2022/03/24 08:42:24;;;;;;;;;;;16.90;66.40;;;;;;4981033;28;19921;-65
2022/03/24 08:44:50;;;;;;;;;;;17.10;61.90;;;;;;4983140;28;19914;-67
2022/03/24 08:47:15;;;;;;;;;;;17.00;58.70;;;;;;4992138;28;19925;-70
2022/03/24 08:49:41;;;;;;;;;;;16.80;59.70;;;;;;4981051;28;19918;-71
2022/03/24 08:52:07;;;;;;;;;;;17.30;57.90;;;;;;4994286;28;19993;-65
2022/03/24 08:54:33;;;;;;;;;;;17.00;57.80;;;;;;4982775;28;20009;-62
2022/03/24 08:56:58;;;;;;;;;;;16.80;58.40;;;;;;4980663;28;19910;-70
2022/03/24 08:59:24;;;;;;;;;;;17.10;57.90;;;;;;5000675;28;19971;-66
2022/03/24 09:01:49;;;;;;;;;;;17.30;58.20;;;;;;4991990;28;20007;-66
2022/03/24 09:04:16;;;;;;;;;;;17.00;57.60;;;;;;4986743;28;19910;-70
2022/03/24 09:06:42;;;;;;;;;;;17.80;78.70;;;;;;4992609;28;19914;-72
2022/03/24 09:09:10;;;;;;;;;;;18.00;60.40;;;;;;5008082;28;19944;-63
2022/03/24 09:11:36;;;;;;;;;;;18.20;58.30;;;;;;4993054;28;19954;-63
2022/03/24 09:14:01;;;;;;;;;;;18.80;56.50;;;;;;4991238;28;19914;-64
2022/03/24 09:16:27;;;;;;;;;;;18.40;56.60;;;;;;4991817;28;19948;-64
2022/03/24 09:18:52;;;;;;;;;;;18.40;56.60;;;;;;5007260;28;20347;-69
2022/03/24 09:21:18;;;;;;;;;;;19.10;55.70;;;;;;4994734;28;19928;-64
2022/03/24 09:23:44;;;;;;;;;;;18.70;55.30;;;;;;5002371;28;20330;-67
2022/03/24 09:26:09;;;;;;;;;;;18.90;55.80;;;;;;4999684;28;19922;-68
2022/03/24 09:28:35;;;;;;;;;;;19.60;55.80;;;;;;5000944;28;19932;-64
2022/03/24 09:31:01;;;;;;;;;;;19.60;55.00;;;;;;4983448;28;19920;-70
2022/03/24 09:33:26;;;;;;;;;;;19.60;54.70;;;;;;4987425;28;19995;-68
2022/03/24 09:35:52;;;;;;;;;;;19.80;54.90;;;;;;4985533;28;19914;-69
2022/03/24 09:38:18;;;;;;;;;;;20.50;54.10;;;;;;4986803;28;19920;-69
2022/03/24 09:40:43;;;;;;;;;;;21.10;53.60;;;;;;4986538;28;19936;-66
2022/03/24 09:43:09;;;;;;;;;;;21.10;52.90;;;;;;4987846;28;19913;-66
2022/03/24 09:45:34;;;;;;;;;;;21.30;52.70;;;;;;4986430;28;20235;-68
2022/03/24 09:48:00;;;;;;;;;;;22.00;52.30;;;;;;4977645;28;20375;-66
2022/03/24 09:50:27;;;;;;;;;;;21.70;51.40;;;;;;4991307;28;19937;-68
2022/03/24 09:52:53;;;;;;;;;;;21.80;51.80;;;;;;4989816;28;19978;-69
2022/03/24 09:55:19;;;;;;;;;;;21.30;51.80;;;;;;4974054;28;19980;-67
2022/03/24 09:57:46;;;;;;;;;;;21.40;52.40;;;;;;4972531;28;19911;-66
2022/03/24 10:00:11;;;;;;;;;;;21.70;52.00;;;;;;4983282;28;19999;-64
2022/03/24 10:02:37;;;;;;;;;;;21.00;53.00;;;;;;4991885;28;20363;-68
2022/03/24 10:05:04;;;;;;;;;;;20.50;52.20;;;;;;4992023;28;20224;-67
2022/03/24 10:07:34;;;;;;;;;;;20.90;53.00;;;;;;4991504;28;19918;-66
2022/03/24 10:10:01;;;;;;;;;;;21.10;52.40;;;;;;4991316;28;20091;-66
2022/03/24 10:12:37;;;;;;;;;;;20.80;51.90;;;;;;5007523;28;19993;-69
2022/03/24 10:15:04;;;;;;;;;;;21.00;52.80;;;;;;5007211;28;20007;-68
2022/03/24 10:17:31;;;;;;;;;;;21.60;52.20;;;;;;4992662;28;19910;-65
2022/03/24 10:19:58;;;;;;;;;;;22.20;51.80;;;;;;4991802;28;19914;-67
2022/03/24 10:22:24;;;;;;;;;;;22.50;50.80;;;;;;5007749;28;19933;-63
2022/03/24 10:24:50;;;;;;;;;;;22.70;50.50;;;;;;4992155;28;19914;-66
2022/03/24 10:27:22;;;;;;;;;;;23.00;50.70;;;;;;4992882;28;19920;-70
2022/03/24 10:29:51;;;;;;;;;;;23.40;50.40;;;;;;5006844;28;19913;-64
2022/03/24 10:32:17;;;;;;;;;;;23.30;50.50;;;;;;5007647;28;19910;-70
2022/03/24 10:34:50;;;;;;;;;;;23.60;49.90;;;;;;4991999;28;20020;-71
2022/03/24 10:37:18;;;;;;;;;;;23.90;49.70;;;;;;4992496;28;19968;-67
2022/03/24 10:39:56;;;;;;;;;;;24.30;49.30;;;;;;4992082;28;19961;-72
2022/03/24 10:42:23;;;;;;;;;;;24.20;48.50;;;;;;4990920;28;19910;-72
2022/03/24 10:45:07;;;;;;;;;;;24.60;48.30;;;;;;4991933;28;19996;-72
2022/03/24 10:47:51;;;;;;;;;;;24.80;48.30;;;;;;4991574;28;19968;-71
2022/03/24 10:50:25;;;;;;;;;;;25.30;48.30;;;;;;4991316;28;20350;-71
2022/03/24 10:52:51;;;;;;;;;;;24.80;48.20;;;;;;5006332;28;19910;-67
2022/03/24 10:55:31;;;;;;;;;;;25.50;48.00;;;;;;5007038;28;19917;-73
2022/03/24 10:57:58;;;;;;;;;;;25.60;47.70;;;;;;5006467;28;19966;-67
2022/03/24 11:00:23;;;;;;;;;;;25.90;47.30;;;;;;5007613;28;19910;-67
2022/03/24 11:02:49;;;;;;;;;;;25.60;47.10;;;;;;4991660;28;19917;-70
2022/03/24 11:05:15;;;;;;;;;;;25.40;47.50;;;;;;5006941;28;20332;-65
2022/03/24 11:07:40;;;;;;;;;;;25.20;47.40;;;;;;4991762;28;20308;-67
2022/03/24 11:10:13;;;;;;;;;;;25.00;47.20;;;;;;4989314;28;20000;-67
2022/03/24 11:12:39;;;;;;;;;;;25.50;47.60;;;;;;5006468;28;20248;-66
2022/03/24 11:15:07;;;;;;;;;;;25.20;47.50;;;;;;4991035;28;19952;-67
2022/03/24 11:17:33;;;;;;;;;;;25.30;47.00;;;;;;4989932;28;19917;-68
2022/03/24 11:20:04;;;;;;;;;;;25.30;46.70;;;;;;4992317;28;19956;-71
2022/03/24 11:22:49;;;;;;;;;;;25.20;46.90;;;;;;4993951;28;19969;-68
2022/03/24 11:25:15;;;;;;;;;;;25.60;47.00;;;;;;4993955;28;19914;-66
2022/03/24 11:27:40;;;;;;;;;;;26.30;47.40;;;;;;5010745;28;19967;-70
2022/03/24 11:30:09;;;;;;;;;;;26.70;46.70;;;;;;5009583;28;20294;-70
2022/03/24 11:32:35;;;;;;;;;;;27.10;45.70;;;;;;5009995;28;20019;-70
2022/03/24 11:35:03;;;;;;;;;;;26.30;46.20;;;;;;4992649;28;19917;-68
2022/03/24 11:37:28;;;;;;;;;;;26.50;45.40;;;;;;5010006;28;20017;-70
2022/03/24 11:40:08;;;;;;;;;;;26.80;45.40;;;;;;5009339;28;19949;-65
2022/03/24 11:42:36;;;;;;;;;;;27.30;45.50;;;;;;5010005;28;19917;-65
2022/03/24 11:45:13;;;;;;;;;;;27.30;45.30;;;;;;5009324;28;19980;-68
2022/03/24 11:47:54;;;;;;;;;;;27.30;45.10;;;;;;4994622;28;20032;-71
2022/03/24 11:50:40;;;;;;;;;;;27.90;45.20;;;;;;4994529;28;20355;-69
2022/03/24 11:53:15;;;;;;;;;;;28.20;45.00;;;;;;4992515;28;19929;-69
2022/03/24 11:56:10;;;;;;;;;;;28.00;44.70;;;;;;4993428;28;19961;-65
2022/03/24 11:59:06;;;;;;;;;;;27.90;44.40;;;;;;4995010;28;20283;-70
2022/03/24 12:01:33;;;;;;;;;;;28.40;44.40;;;;;;4991779;28;19914;-69
2022/03/24 12:04:00;;;;;;;;;;;28.80;44.30;;;;;;4995635;28;19917;-69
2022/03/24 12:06:41;;;;;;;;;;;28.60;44.20;;;;;;4974343;28;19914;-67
2022/03/24 12:09:08;;;;;;;;;;;28.80;43.80;;;;;;4973053;28;20148;-68
2022/03/24 12:11:33;;;;;;;;;;;28.70;43.70;;;;;;4973749;28;19917;-69
2022/03/24 12:13:59;;;;;;;;;;;28.60;43.40;;;;;;4988469;28;19914;-67
2022/03/24 12:16:26;;;;;;;;;;;28.20;43.30;;;;;;4984200;28;20008;-68
2022/03/24 12:18:52;;;;;;;;;;;27.90;43.80;;;;;;4991033;28;19914;-67
2022/03/24 12:21:19;;;;;;;;;;;28.00;43.80;;;;;;4997240;28;19937;-71
2022/03/24 12:24:03;;;;;;;;;;;27.50;43.80;;;;;;5011470;28;20352;-68
2022/03/24 12:26:30;;;;;;;;;;;28.30;44.00;;;;;;4986493;28;20286;-73
2022/03/24 12:29:14;;;;;;;;;;;28.30;43.70;;;;;;4988686;28;20039;-67
2022/03/24 12:32:00;;;;;;;;;;;28.20;43.00;;;;;;4991367;28;20304;-67
2022/03/24 12:34:29;;;;;;;;;;;28.20;43.10;;;;;;4992431;28;20366;-70
2022/03/24 12:36:55;;;;;;;;;;;28.00;42.90;;;;;;5008273;28;19921;-67
2022/03/24 12:39:37;;;;;;;;;;;27.90;41.70;;;;;;5009000;28;19910;-70
2022/03/24 12:42:08;;;;;;;;;;;27.70;42.80;;;;;;4992869;28;19909;-70
2022/03/24 12:44:54;;;;;;;;;;;28.10;42.60;;;;;;4989768;28;19932;-67
2022/03/24 12:47:30;;;;;;;;;;;28.40;42.40;;;;;;4990837;28;19914;-69
2022/03/24 12:49:57;;;;;;;;;;;27.20;42.60;;;;;;5002416;28;20015;-67
2022/03/24 12:52:26;;;;;;;;;;;28.10;42.80;;;;;;4991975;28;20316;-70
2022/03/24 12:54:53;;;;;;;;;;;28.00;42.20;;;;;;4992809;28;19918;-69
2022/03/24 12:57:18;;;;;;;;;;;27.70;42.00;;;;;;4981222;28;19992;-68
2022/03/24 12:59:45;;;;;;;;;;;27.40;42.20;;;;;;4974269;28;19945;-68
2022/03/24 13:02:11;;;;;;;;;;;27.70;42.30;;;;;;4980962;28;19990;-70
2022/03/24 13:04:37;;;;;;;;;;;27.90;42.40;;;;;;4992874;28;19925;-68
2022/03/24 13:07:02;;;;;;;;;;;28.10;42.50;;;;;;4991693;28;19918;-71
2022/03/24 13:09:28;;;;;;;;;;;27.90;41.90;;;;;;4992580;28;19913;-67
2022/03/24 13:11:54;;;;;;;;;;;28.50;41.60;;;;;;4992761;28;20012;-74
2022/03/24 13:14:21;;;;;;;;;;;28.70;41.40;;;;;;4987180;28;19917;-73
2022/03/24 13:17:02;;;;;;;;;;;28.80;41.10;;;;;;4992491;28;19914;-76
2022/03/24 13:19:28;;;;;;;;;;;28.80;41.20;;;;;;4991891;28;19910;-66
2022/03/24 13:21:55;;;;;;;;;;;29.10;41.20;;;;;;4984255;28;19922;-70
2022/03/24 13:24:21;;;;;;;;;;;29.30;41.40;;;;;;4991094;28;19941;-69
2022/03/24 13:27:00;;;;;;;;;;;29.10;41.10;;;;;;4992594;28;19914;-73
2022/03/24 13:29:36;;;;;;;;;;;29.00;41.00;;;;;;4991662;28;19921;-67
2022/03/24 13:32:08;;;;;;;;;;;29.20;41.30;;;;;;4989116;28;20012;-67
2022/03/24 13:34:33;;;;;;;;;;;29.00;40.40;;;;;;4987791;28;19914;-68
2022/03/24 13:37:09;;;;;;;;;;;28.50;41.20;;;;;;4993007;28;19932;-70
2022/03/24 13:39:36;;;;;;;;;;;28.80;40.80;;;;;;5002959;28;20272;-71
2022/03/24 13:42:07;;;;;;;;;;;28.40;40.80;;;;;;5005684;28;20363;-72
2022/03/24 13:44:33;;;;;;;;;;;28.10;40.40;;;;;;4990783;28;19917;-72
2022/03/24 13:46:58;;;;;;;;;;;27.40;40.70;;;;;;5006552;28;19914;-68
2022/03/24 13:49:25;;;;;;;;;;;27.00;41.60;;;;;;4992313;28;19914;-69
2022/03/24 13:51:51;;;;;;;;;;;27.30;41.40;;;;;;4991041;28;19932;-68
2022/03/24 13:54:20;;;;;;;;;;;27.50;41.40;;;;;;5006994;28;20232;-71
2022/03/24 13:56:47;;;;;;;;;;;27.60;41.40;;;;;;5007319;28;20390;-73
2022/03/24 13:59:12;;;;;;;;;;;27.50;41.50;;;;;;4990385;28;20217;-69
2022/03/24 14:01:38;;;;;;;;;;;27.40;41.50;;;;;;4991166;28;19936;-67
2022/03/24 14:04:15;;;;;;;;;;;27.40;41.80;;;;;;4986807;28;20283;-71
2022/03/24 14:06:41;;;;;;;;;;;28.20;42.50;;;;;;4980511;28;19968;-69
2022/03/24 14:09:20;;;;;;;;;;;28.20;42.20;;;;;;4981079;28;19999;-74
2022/03/24 14:11:46;;;;;;;;;;;28.40;41.40;;;;;;4988247;28;19914;-58
2022/03/24 14:14:16;;;;;;;;;;;28.30;42.30;;;;;;4987119;28;19913;-59
2022/03/24 14:16:43;;;;;;;;;;;28.10;48.40;;;;;;4991843;28;19913;-56
2022/03/24 14:19:09;;;;;;;;;;;28.20;47.20;;;;;;4991134;28;20008;-58
2022/03/24 14:21:40;;;;;;;;;;;28.10;47.50;;;;;;4989579;28;19929;-56
2022/03/24 14:24:06;;;;;;;;;;;27.90;48.50;;;;;;4976845;28;19925;-59